createdAt,value
2017-12-03T00:01:57.523Z,2.50
2017-12-03T00:04:25.566Z,2.40
2017-12-03T00:06:54.597Z,2.50
2017-12-03T00:09:22.691Z,2.50
2017-12-03T00:11:50.745Z,2.40
2017-12-03T00:14:19.678Z,2.50
2017-12-03T00:16:47.774Z,2.60
2017-12-03T00:19:15.825Z,2.60
2017-12-03T00:21:43.866Z,2.60
2017-12-03T00:24:12.002Z,2.60
2017-12-03T00:26:40.051Z,2.50
2017-12-03T00:29:09.394Z,2.50
2017-12-03T00:31:37.486Z,2.50
2017-12-03T00:34:05.547Z,2.40
2017-12-03T00:36:34.394Z,2.40
2017-12-03T00:39:02.493Z,2.40
2017-12-03T00:41:30.544Z,2.40
2017-12-03T00:43:58.635Z,2.20
2017-12-03T00:46:26.728Z,2.30
2017-12-03T00:48:54.823Z,2.40
2017-12-03T00:51:22.995Z,2.40
2017-12-03T00:53:51.047Z,2.30
2017-12-03T00:56:19.138Z,2.30
2017-12-03T00:58:47.189Z,2.30
2017-12-03T01:01:15.234Z,2.50
2017-12-03T01:03:43.516Z,2.50
2017-12-03T01:06:11.570Z,2.60
2017-12-03T01:08:39.614Z,2.40
2017-12-03T01:11:07.730Z,2.30
2017-12-03T01:13:35.788Z,2.30
2017-12-03T01:16:03.835Z,2.30
2017-12-03T01:18:31.927Z,2.40
2017-12-03T01:20:59.974Z,2.40
2017-12-03T01:23:28.027Z,2.40
2017-12-03T01:25:56.130Z,2.40
2017-12-03T01:28:24.191Z,2.40
2017-12-03T01:30:52.330Z,2.30
2017-12-03T01:33:20.422Z,2.40
2017-12-03T01:35:48.470Z,2.40
2017-12-03T01:38:16.562Z,2.20
2017-12-03T01:40:44.624Z,2.30
2017-12-03T01:43:13.491Z,2.40
2017-12-03T01:45:41.555Z,2.30
2017-12-03T01:48:09.671Z,2.20
2017-12-03T01:50:37.719Z,2.10
2017-12-03T01:53:05.767Z,2.00
2017-12-03T01:55:34.625Z,2.00
2017-12-03T01:58:02.683Z,2.00
2017-12-03T02:00:30.770Z,2.00
2017-12-03T02:02:58.862Z,2.10
2017-12-03T02:05:26.911Z,2.10
2017-12-03T02:07:55.064Z,2.10
2017-12-03T02:10:23.115Z,2.10
2017-12-03T02:12:51.163Z,2.10
2017-12-03T02:15:20.027Z,1.90
2017-12-03T02:17:48.131Z,1.90
2017-12-03T02:20:16.990Z,1.70
2017-12-03T02:22:45.077Z,1.70
2017-12-03T02:25:13.354Z,1.60
2017-12-03T02:27:41.419Z,1.50
2017-12-03T02:30:09.470Z,1.50
2017-12-03T02:32:38.331Z,1.40
2017-12-03T02:35:06.435Z,1.40
2017-12-03T02:37:34.487Z,1.40
2017-12-03T02:40:02.615Z,1.30
2017-12-03T02:42:30.670Z,1.30
2017-12-03T02:44:58.718Z,1.30
2017-12-03T02:47:26.824Z,1.20
2017-12-03T02:49:54.885Z,1.20
2017-12-03T02:52:23.700Z,1.20
2017-12-03T02:54:51.795Z,1.20
2017-12-03T02:57:19.851Z,1.20
2017-12-03T02:59:47.955Z,1.20
2017-12-03T03:02:16.011Z,1.20
2017-12-03T03:04:44.878Z,1.20
2017-12-03T03:07:12.975Z,1.20
2017-12-03T03:09:41.072Z,1.10
2017-12-03T03:12:09.898Z,1.00
2017-12-03T03:14:37.996Z,1.00
2017-12-03T03:17:06.050Z,0.90
2017-12-03T03:19:34.920Z,1.00
2017-12-03T03:22:03.079Z,0.90
2017-12-03T03:24:31.141Z,0.90
2017-12-03T03:26:59.226Z,0.90
2017-12-03T03:29:27.279Z,0.80
2017-12-03T03:31:56.107Z,0.80
2017-12-03T03:34:24.214Z,0.70
2017-12-03T03:36:52.266Z,0.80
2017-12-03T03:39:21.082Z,0.70
2017-12-03T03:41:49.178Z,0.70
2017-12-03T03:44:17.233Z,0.70
2017-12-03T03:46:46.099Z,0.60
2017-12-03T03:49:14.155Z,0.60
2017-12-03T03:51:42.246Z,0.70
2017-12-03T03:54:10.298Z,0.60
2017-12-03T03:56:38.423Z,0.70
2017-12-03T03:59:06.481Z,0.70
2017-12-03T04:01:34.530Z,0.60
2017-12-03T04:04:03.395Z,0.50
2017-12-03T04:06:31.451Z,0.50
2017-12-03T04:08:59.554Z,0.60
2017-12-03T04:11:27.646Z,0.60
2017-12-03T04:13:55.707Z,0.60
2017-12-03T04:16:23.820Z,0.60
2017-12-03T04:18:51.866Z,0.70
2017-12-03T04:21:19.922Z,0.60
2017-12-03T04:23:50.104Z,0.80
2017-12-03T04:26:18.163Z,0.70
2017-12-03T04:28:46.211Z,0.80
2017-12-03T04:31:15.447Z,0.60
2017-12-03T04:33:43.498Z,0.60
2017-12-03T04:36:11.558Z,0.70
2017-12-03T04:38:39.674Z,0.80
2017-12-03T04:41:08.494Z,0.90
2017-12-03T04:43:37.334Z,1.00
2017-12-03T04:46:05.440Z,1.00
2017-12-03T04:48:33.549Z,0.90
2017-12-03T04:51:02.406Z,0.90
2017-12-03T04:53:30.510Z,0.80
2017-12-03T04:55:58.606Z,0.90
2017-12-03T04:58:26.663Z,0.90
2017-12-03T05:00:54.724Z,0.90
2017-12-03T05:03:22.838Z,0.90
2017-12-03T05:05:50.885Z,1.00
2017-12-03T05:08:18.948Z,1.00
2017-12-03T05:10:47.827Z,1.10
2017-12-03T05:13:15.883Z,1.10
2017-12-03T05:18:17.301Z,1.10
2017-12-03T05:20:45.351Z,1.20
2017-12-03T05:23:13.411Z,1.10
2017-12-03T05:25:41.511Z,1.20
2017-12-03T05:28:09.611Z,1.10
2017-12-03T05:30:37.714Z,1.10
2017-12-03T05:33:05.847Z,1.10
2017-12-03T05:35:33.999Z,1.20
2017-12-03T05:38:03.558Z,1.20
2017-12-03T05:40:31.662Z,1.20
2017-12-03T05:42:59.717Z,1.20
2017-12-03T05:45:27.774Z,1.10
2017-12-03T05:47:55.871Z,1.20
2017-12-03T05:50:24.694Z,1.20
2017-12-03T05:52:52.793Z,1.20
2017-12-03T05:55:20.847Z,1.30
2017-12-03T05:57:49.701Z,1.20
2017-12-03T06:00:17.807Z,1.20
2017-12-03T06:02:45.867Z,1.30
2017-12-03T06:05:13.924Z,1.20
2017-12-03T06:07:42.031Z,1.30
2017-12-03T06:10:10.086Z,1.30
2017-12-03T06:12:38.134Z,1.30
2017-12-03T06:15:06.259Z,1.30
2017-12-03T06:17:34.326Z,1.30
2017-12-03T06:20:03.148Z,1.40
2017-12-03T06:22:31.251Z,1.30
2017-12-03T06:24:59.306Z,1.40
2017-12-03T06:27:27.823Z,1.50
2017-12-03T06:29:55.870Z,1.40
2017-12-03T06:32:24.695Z,1.10
2017-12-03T06:34:52.794Z,1.00
2017-12-03T06:37:20.855Z,1.10
2017-12-03T06:39:48.915Z,1.10
2017-12-03T06:42:17.782Z,1.00
2017-12-03T06:44:45.826Z,1.00
2017-12-03T06:47:13.881Z,1.00
2017-12-03T06:49:42.742Z,0.90
2017-12-03T06:52:10.800Z,0.90
2017-12-03T06:54:38.890Z,1.00
2017-12-03T06:57:06.991Z,0.90
2017-12-03T06:59:35.066Z,0.90
2017-12-03T07:02:03.171Z,0.80
2017-12-03T07:04:31.222Z,0.90
2017-12-03T07:06:59.318Z,0.80
2017-12-03T07:09:27.375Z,1.00
2017-12-03T07:11:55.427Z,0.90
2017-12-03T07:14:23.531Z,0.90
2017-12-03T07:16:52.347Z,0.80
2017-12-03T07:19:20.399Z,0.80
2017-12-03T07:21:48.494Z,0.80
2017-12-03T07:24:17.318Z,0.80
2017-12-03T07:26:45.366Z,0.70
2017-12-03T07:29:13.474Z,0.70
2017-12-03T07:31:42.295Z,0.70
2017-12-03T07:34:10.352Z,0.70
2017-12-03T07:36:39.241Z,0.80
2017-12-03T07:39:07.282Z,0.70
2017-12-03T07:41:35.361Z,0.70
2017-12-03T07:44:03.484Z,0.70
2017-12-03T07:46:31.586Z,0.60
2017-12-03T07:48:59.679Z,0.60
2017-12-03T07:51:29.462Z,0.50
2017-12-03T07:53:57.588Z,0.50
2017-12-03T07:56:26.458Z,0.60
2017-12-03T07:58:54.506Z,0.60
2017-12-03T08:01:22.676Z,0.60
2017-12-03T08:03:50.766Z,0.60
2017-12-03T08:06:18.820Z,0.60
2017-12-03T08:08:47.648Z,0.50
2017-12-03T08:11:15.758Z,0.50
2017-12-03T08:13:43.854Z,0.50
2017-12-03T08:16:11.968Z,0.50
2017-12-03T08:18:40.034Z,0.50
2017-12-03T08:21:08.140Z,0.60
2017-12-03T08:23:37.012Z,0.50
2017-12-03T08:26:05.066Z,0.50
2017-12-03T08:28:33.174Z,0.60
2017-12-03T08:31:01.291Z,0.70
2017-12-03T08:33:30.115Z,0.70
2017-12-03T08:35:58.334Z,0.70
2017-12-03T08:38:26.396Z,0.80
2017-12-03T08:40:54.507Z,0.80
2017-12-03T08:43:22.718Z,0.90
2017-12-03T08:45:50.770Z,0.90
2017-12-03T08:48:18.828Z,1.00
2017-12-03T08:50:46.923Z,1.00
2017-12-03T08:53:15.027Z,1.10
2017-12-03T08:55:43.087Z,1.10
2017-12-03T08:58:11.186Z,1.20
2017-12-03T09:00:39.245Z,1.30
2017-12-03T09:03:08.106Z,1.40
2017-12-03T09:05:36.210Z,1.40
2017-12-03T09:08:04.262Z,1.50
2017-12-03T09:10:32.319Z,1.40
2017-12-03T09:13:00.424Z,1.40
2017-12-03T09:15:28.482Z,1.50
2017-12-03T09:17:56.699Z,1.50
2017-12-03T09:20:24.742Z,1.50
2017-12-03T09:22:52.794Z,1.50
2017-12-03T09:25:20.891Z,1.60
2017-12-03T09:27:49.706Z,1.70
2017-12-03T09:30:18.655Z,1.60
2017-12-03T09:32:46.702Z,1.60
2017-12-03T09:35:15.505Z,1.70
2017-12-03T09:37:43.622Z,1.70
2017-12-03T09:40:11.670Z,1.90
2017-12-03T09:42:39.727Z,1.90
2017-12-03T09:45:07.818Z,1.90
2017-12-03T09:47:36.643Z,2.10
2017-12-03T09:50:04.784Z,2.10
2017-12-03T09:52:32.807Z,2.20
2017-12-03T09:55:00.907Z,2.30
2017-12-03T09:57:28.951Z,2.30
2017-12-03T09:59:56.998Z,2.20
2017-12-03T10:02:25.118Z,2.30
2017-12-03T10:04:53.167Z,2.40
2017-12-03T10:07:21.269Z,2.60
2017-12-03T10:09:49.320Z,2.50
2017-12-03T10:12:17.493Z,2.60
2017-12-03T10:14:45.587Z,2.60
2017-12-03T10:17:13.670Z,2.50
2017-12-03T10:19:41.755Z,2.50
2017-12-03T10:22:09.794Z,2.40
2017-12-03T10:24:38.610Z,2.50
2017-12-03T10:27:07.470Z,2.70
2017-12-03T10:29:35.520Z,2.60
2017-12-03T10:32:03.618Z,2.60
2017-12-03T10:34:31.667Z,2.60
2017-12-03T10:37:00.706Z,2.70
2017-12-03T10:39:29.570Z,2.60
2017-12-03T10:41:58.379Z,2.70
2017-12-03T10:44:26.467Z,2.60
2017-12-03T10:46:55.317Z,2.60
2017-12-03T10:49:24.364Z,2.60
2017-12-03T10:51:53.183Z,2.80
2017-12-03T10:54:21.271Z,2.80
2017-12-03T10:56:49.322Z,2.80
2017-12-03T10:59:17.440Z,2.80
2017-12-03T11:01:45.500Z,2.90
2017-12-03T11:04:14.318Z,2.90
2017-12-03T11:06:42.416Z,2.90
2017-12-03T11:09:10.595Z,2.90
2017-12-03T11:11:38.646Z,2.80
2017-12-03T11:14:07.459Z,2.90
2017-12-03T11:16:36.423Z,2.90
2017-12-03T11:19:04.463Z,2.90
2017-12-03T11:21:32.512Z,3.00
2017-12-03T11:24:00.726Z,3.00
2017-12-03T11:26:29.538Z,3.00
2017-12-03T11:28:58.490Z,2.90
2017-12-03T11:31:26.768Z,3.00
2017-12-03T11:33:54.803Z,3.00
2017-12-03T11:36:22.860Z,2.90
2017-12-03T11:38:50.976Z,2.90
2017-12-03T11:41:19.784Z,2.90
2017-12-03T11:43:47.836Z,2.90
2017-12-03T11:46:15.939Z,3.00
2017-12-03T11:48:44.743Z,3.10
2017-12-03T11:51:13.560Z,3.10
2017-12-03T11:53:41.650Z,3.10
2017-12-03T11:56:10.774Z,3.10
2017-12-03T11:58:38.815Z,3.10
2017-12-03T12:01:07.624Z,3.20
2017-12-03T12:03:36.476Z,3.10
2017-12-03T12:06:04.530Z,3.10
2017-12-03T12:08:32.719Z,3.00
2017-12-03T12:11:00.760Z,3.20
2017-12-03T12:13:28.858Z,3.30
2017-12-03T12:15:57.664Z,3.40
2017-12-03T12:18:25.795Z,3.30
2017-12-03T12:20:53.910Z,3.40
2017-12-03T12:23:21.948Z,3.30
2017-12-03T12:25:49.995Z,3.40
2017-12-03T12:28:19.975Z,3.30
2017-12-03T12:30:48.012Z,3.30
2017-12-03T12:33:16.819Z,3.30
2017-12-03T12:35:44.906Z,3.30
2017-12-03T12:38:13.007Z,3.30
2017-12-03T12:40:41.050Z,3.30
2017-12-03T12:43:09.854Z,3.10
2017-12-03T12:45:38.706Z,2.90
2017-12-03T12:48:06.986Z,2.90
2017-12-03T12:50:36.922Z,2.90
2017-12-03T12:53:05.206Z,2.90
2017-12-03T12:55:33.494Z,2.90
2017-12-03T12:58:01.828Z,2.80
2017-12-03T13:00:30.184Z,2.70
2017-12-03T13:02:58.666Z,2.70
2017-12-03T13:05:26.958Z,2.70
2017-12-03T13:07:55.246Z,2.60
2017-12-03T13:10:23.580Z,2.50
2017-12-03T13:12:51.907Z,2.60
2017-12-03T13:15:20.252Z,2.60
2017-12-03T13:17:49.299Z,2.60
2017-12-03T13:20:17.583Z,2.60
2017-12-03T13:22:45.909Z,2.70
2017-12-03T13:25:14.221Z,2.90
2017-12-03T13:27:43.302Z,2.60
2017-12-03T13:30:11.590Z,2.60
2017-12-03T13:32:40.838Z,2.60
2017-12-03T13:35:09.118Z,2.60
2017-12-03T13:37:38.272Z,2.60
2017-12-03T13:40:06.559Z,2.60
2017-12-03T13:42:34.838Z,2.60
2017-12-03T13:45:03.175Z,2.60
2017-12-03T13:47:31.455Z,2.50
2017-12-03T13:49:59.738Z,2.50
2017-12-03T13:52:28.223Z,2.60
2017-12-03T13:54:57.471Z,2.60
2017-12-03T13:57:26.510Z,2.50
2017-12-03T13:59:54.830Z,2.50
2017-12-03T14:02:23.430Z,2.40
2017-12-03T14:04:51.722Z,2.40
2017-12-03T14:07:20.035Z,2.40
2017-12-03T14:09:48.355Z,2.40
2017-12-03T14:12:16.643Z,2.40
2017-12-03T14:14:45.084Z,2.40
2017-12-03T14:17:13.367Z,2.40
2017-12-03T14:19:41.647Z,2.30
2017-12-03T14:22:09.981Z,2.30
2017-12-03T14:24:39.048Z,2.30
2017-12-03T14:27:07.336Z,2.30
2017-12-03T14:29:35.659Z,2.30
2017-12-03T14:32:04.719Z,2.20
2017-12-03T14:34:33.061Z,2.20
2017-12-03T14:37:02.113Z,2.20
2017-12-03T14:39:30.479Z,2.20
2017-12-03T14:41:58.762Z,2.20
2017-12-03T14:44:27.070Z,2.20
2017-12-03T14:46:55.411Z,2.20
2017-12-03T14:49:23.694Z,2.20
2017-12-03T14:51:51.995Z,2.20
2017-12-03T14:54:20.322Z,2.20
2017-12-03T14:56:48.670Z,2.20
2017-12-03T14:59:17.010Z,2.30
2017-12-03T15:01:46.030Z,2.10
2017-12-03T15:04:14.363Z,2.10
2017-12-03T15:06:43.467Z,2.20
2017-12-03T15:09:12.526Z,2.10
2017-12-03T15:11:40.903Z,2.10
2017-12-03T15:14:09.203Z,2.10
2017-12-03T15:16:37.582Z,2.00
2017-12-03T15:19:05.915Z,2.10
2017-12-03T15:21:34.212Z,2.00
2017-12-03T15:24:02.584Z,2.00
2017-12-03T15:26:30.880Z,1.90
2017-12-03T15:28:59.217Z,1.90
2017-12-03T15:31:28.492Z,1.90
2017-12-03T15:33:56.786Z,1.90
2017-12-03T15:36:25.837Z,2.00
2017-12-03T15:38:54.163Z,1.90
2017-12-03T15:41:22.451Z,1.90
2017-12-03T15:43:50.867Z,1.90
2017-12-03T15:46:19.150Z,1.90
2017-12-03T15:48:47.421Z,1.90
2017-12-03T15:51:15.784Z,1.90
2017-12-03T15:53:44.106Z,2.00
2017-12-03T15:56:13.394Z,2.00
2017-12-03T15:58:41.767Z,2.00
2017-12-03T16:01:10.123Z,2.00
2017-12-03T16:03:38.442Z,1.90
2017-12-03T16:06:06.810Z,1.90
2017-12-03T16:08:35.102Z,1.90
2017-12-03T16:11:03.374Z,1.90
2017-12-03T16:13:31.772Z,1.90
2017-12-03T16:16:00.051Z,1.90
2017-12-03T16:18:28.368Z,1.90
2017-12-03T16:20:57.422Z,2.00
2017-12-03T16:23:25.843Z,2.00
2017-12-03T16:25:54.135Z,1.90
2017-12-03T16:28:22.428Z,1.90
2017-12-03T16:30:50.786Z,1.80
2017-12-03T16:33:19.073Z,1.90
2017-12-03T16:35:47.368Z,1.90
2017-12-03T16:38:15.699Z,1.80
2017-12-03T16:40:44.768Z,1.80
2017-12-03T16:43:13.102Z,1.80
2017-12-03T16:45:42.200Z,1.80
2017-12-03T16:48:10.483Z,1.80
2017-12-03T16:50:38.840Z,1.80
2017-12-03T16:53:07.130Z,1.90
2017-12-03T16:55:35.422Z,1.90
2017-12-03T16:58:04.548Z,1.80
2017-12-03T17:00:32.840Z,1.80
2017-12-03T17:03:01.127Z,1.70
2017-12-03T17:05:29.542Z,1.70
2017-12-03T17:07:57.880Z,1.80
2017-12-03T17:10:26.162Z,1.80
2017-12-03T17:12:54.503Z,1.70
2017-12-03T17:15:24.391Z,1.80
2017-12-03T17:17:52.683Z,1.80
2017-12-03T17:20:21.018Z,1.70
2017-12-03T17:22:49.351Z,1.70
2017-12-03T17:25:18.379Z,1.60
2017-12-03T17:27:46.710Z,1.60
2017-12-03T17:30:15.766Z,1.60
2017-12-03T17:32:44.054Z,1.60
2017-12-03T17:35:12.395Z,1.60
2017-12-03T17:37:41.506Z,1.60
2017-12-03T17:40:09.794Z,1.60
2017-12-03T17:42:38.855Z,1.60
2017-12-03T17:45:07.282Z,1.60
2017-12-03T17:47:35.587Z,1.60
2017-12-03T17:50:04.695Z,1.60
2017-12-03T17:52:33.992Z,1.70
2017-12-03T17:55:03.287Z,1.60
2017-12-03T17:57:31.580Z,1.60
2017-12-03T17:59:59.936Z,1.70
2017-12-03T18:02:28.434Z,1.70
2017-12-03T18:04:56.759Z,1.60
2017-12-03T18:07:25.110Z,1.70
2017-12-03T18:09:53.463Z,1.70
2017-12-03T18:12:22.518Z,1.60
2017-12-03T18:14:50.807Z,1.60
2017-12-03T18:17:19.322Z,1.70
2017-12-03T18:19:47.607Z,1.70
2017-12-03T18:22:15.894Z,1.70
2017-12-03T18:24:44.255Z,1.70
2017-12-03T18:27:12.555Z,1.80
2017-12-03T18:29:40.842Z,1.70
2017-12-03T18:32:09.580Z,1.70
2017-12-03T18:34:37.887Z,1.70
2017-12-03T18:37:06.958Z,1.60
2017-12-03T18:39:35.334Z,1.60
2017-12-03T18:42:03.648Z,1.60
2017-12-03T18:44:31.948Z,1.60
2017-12-03T18:47:01.571Z,1.60
2017-12-03T18:49:29.945Z,1.50
2017-12-03T18:51:58.252Z,1.50
2017-12-03T18:54:26.558Z,1.50
2017-12-03T18:56:55.668Z,1.60
2017-12-03T18:59:24.736Z,1.60
2017-12-03T19:01:53.095Z,1.60
2017-12-03T19:04:21.389Z,1.60
2017-12-03T19:06:49.739Z,1.50
2017-12-03T19:09:18.831Z,1.50
2017-12-03T19:11:47.225Z,1.50
2017-12-03T19:14:15.513Z,1.60
2017-12-03T19:16:44.202Z,1.60
2017-12-03T19:19:12.503Z,1.60
2017-12-03T19:21:40.886Z,1.50
2017-12-03T19:24:09.206Z,1.60
2017-12-03T19:26:38.310Z,1.60
2017-12-03T19:29:07.369Z,1.60
2017-12-03T19:31:36.627Z,1.60
2017-12-03T19:34:06.127Z,1.50
2017-12-03T19:36:34.424Z,1.50
2017-12-03T19:39:03.486Z,1.60
2017-12-03T19:41:31.822Z,1.60
2017-12-03T19:44:01.982Z,1.70
2017-12-03T19:46:31.620Z,1.70
2017-12-03T19:49:01.606Z,1.70
2017-12-03T19:51:30.995Z,1.70
2017-12-03T19:53:59.284Z,1.70
2017-12-03T19:56:27.897Z,1.70
2017-12-03T19:58:56.278Z,1.60
2017-12-03T20:01:24.579Z,1.60
2017-12-03T20:03:52.919Z,1.60
2017-12-03T20:06:22.134Z,1.70
2017-12-03T20:08:50.466Z,1.80
2017-12-03T20:11:18.854Z,1.70
2017-12-03T20:13:47.155Z,1.60
2017-12-03T20:16:16.210Z,1.60
2017-12-03T20:18:44.570Z,1.60
2017-12-03T20:21:12.869Z,1.50
2017-12-03T20:23:41.171Z,1.70
2017-12-03T20:26:09.504Z,1.70
2017-12-03T20:28:37.798Z,1.80
2017-12-03T20:31:06.351Z,1.90
2017-12-03T20:33:34.643Z,1.90
2017-12-03T20:36:02.975Z,2.00
2017-12-03T20:38:31.258Z,2.00
2017-12-03T20:41:03.430Z,1.90
2017-12-03T20:43:31.722Z,1.90
2017-12-03T20:46:00.036Z,2.00
2017-12-03T20:48:28.371Z,2.00
2017-12-03T20:50:56.665Z,1.90
2017-12-03T20:53:25.025Z,1.90
2017-12-03T20:55:54.098Z,1.90
2017-12-03T20:58:22.460Z,1.90
2017-12-03T21:00:50.738Z,1.90
2017-12-03T21:03:19.083Z,1.90
2017-12-03T21:05:47.403Z,1.90
2017-12-03T21:08:15.703Z,2.00
2017-12-03T21:10:44.214Z,2.00
2017-12-03T21:13:12.506Z,2.00
2017-12-03T21:15:41.655Z,2.10
2017-12-03T21:18:09.979Z,2.10
2017-12-03T21:20:38.274Z,2.00
2017-12-03T21:23:06.623Z,2.00
2017-12-03T21:25:35.682Z,1.90
2017-12-03T21:28:03.990Z,1.90
2017-12-03T21:30:32.331Z,2.00
2017-12-03T21:33:00.624Z,2.00
2017-12-03T21:35:28.960Z,2.00
2017-12-03T21:37:57.291Z,2.00
2017-12-03T21:40:26.387Z,2.00
2017-12-03T21:42:54.714Z,2.00
2017-12-03T21:45:23.046Z,2.00
2017-12-03T21:47:51.384Z,2.10
2017-12-03T21:50:19.675Z,2.10
2017-12-03T21:52:47.995Z,2.20
2017-12-03T21:55:16.606Z,2.20
2017-12-03T21:57:44.882Z,2.30
2017-12-03T22:00:16.555Z,2.30
2017-12-03T22:02:44.852Z,2.30
2017-12-03T22:05:13.134Z,2.20
2017-12-03T22:07:41.465Z,2.20
2017-12-03T22:10:10.523Z,2.20
2017-12-03T22:12:38.838Z,2.20
2017-12-03T22:15:07.167Z,2.30
2017-12-03T22:17:35.467Z,2.30
2017-12-03T22:20:03.817Z,2.40
2017-12-03T22:22:32.106Z,2.30
2017-12-03T22:25:00.394Z,2.40
2017-12-03T22:27:28.727Z,2.40
2017-12-03T22:29:57.014Z,2.50
2017-12-03T22:32:25.343Z,2.40
2017-12-03T22:34:53.636Z,2.40
2017-12-03T22:37:21.953Z,2.40
2017-12-03T22:39:51.060Z,2.50
2017-12-03T22:42:20.123Z,2.50
2017-12-03T22:44:48.456Z,2.50
2017-12-03T22:47:17.506Z,2.50
2017-12-03T22:49:45.868Z,2.50
2017-12-03T22:52:14.919Z,2.50
2017-12-03T22:54:43.202Z,2.50
2017-12-03T22:57:11.535Z,2.60
2017-12-03T22:59:40.135Z,2.60
2017-12-03T23:02:08.468Z,2.70
2017-12-03T23:04:36.754Z,2.60
2017-12-03T23:07:05.083Z,2.60
2017-12-03T23:09:33.482Z,2.70
2017-12-03T23:12:01.832Z,2.70
2017-12-03T23:14:30.259Z,2.80
2017-12-03T23:16:58.556Z,2.80
2017-12-03T23:19:26.850Z,2.80
2017-12-03T23:21:55.347Z,2.80
2017-12-03T23:24:23.630Z,2.80
2017-12-03T23:26:51.914Z,3.00
2017-12-03T23:29:20.251Z,2.90
2017-12-03T23:31:48.598Z,2.90
2017-12-03T23:34:16.890Z,3.00
2017-12-03T23:36:45.946Z,3.00
2017-12-03T23:39:14.286Z,3.00
2017-12-03T23:41:42.570Z,3.00
2017-12-03T23:44:12.495Z,3.20
2017-12-03T23:46:42.340Z,3.20
2017-12-03T23:49:10.681Z,3.20
2017-12-03T23:51:39.082Z,3.30
2017-12-03T23:54:07.370Z,3.30
2017-12-03T23:56:35.704Z,3.30
2017-12-03T23:59:04.795Z,3.40
